createdAt,value
2019-02-21T00:01:45.028Z,99261.87
2019-02-21T00:04:13.403Z,99260.30
2019-02-21T00:06:41.770Z,99260.73
2019-02-21T00:09:10.236Z,99259.40
2019-02-21T00:11:38.546Z,99260.97
2019-02-21T00:14:07.053Z,99265.27
2019-02-21T00:16:35.371Z,99267.19
2019-02-21T00:19:03.661Z,99271.28
2019-02-21T00:21:32.061Z,99263.80
2019-02-21T00:24:00.362Z,99256.12
2019-02-21T00:26:28.681Z,99264.47
2019-02-21T00:28:56.989Z,99260.71
2019-02-21T00:31:25.299Z,99263.81
2019-02-21T00:33:53.855Z,99265.27
2019-02-21T00:36:22.165Z,99263.58
2019-02-21T00:38:50.577Z,99263.49
2019-02-21T00:41:18.881Z,99265.53
2019-02-21T00:43:47.188Z,99265.17
2019-02-21T00:46:15.513Z,99269.67
2019-02-21T00:48:43.813Z,99269.47
2019-02-21T00:51:12.170Z,99276.16
2019-02-21T00:53:40.472Z,99272.27
2019-02-21T00:56:08.850Z,99267.84
2019-02-21T00:58:37.173Z,99269.73
2019-02-21T01:01:05.553Z,99269.64
2019-02-21T01:03:33.880Z,99273.81
2019-02-21T01:06:02.221Z,99279.26
2019-02-21T01:08:30.536Z,99272.05
2019-02-21T01:10:58.966Z,99275.74
2019-02-21T01:13:27.299Z,99274.16
2019-02-21T01:15:55.609Z,99273.52
2019-02-21T01:18:23.915Z,99280.45
2019-02-21T01:20:52.300Z,99279.86
2019-02-21T01:23:20.688Z,99279.26
2019-02-21T01:25:49.399Z,99277.84
2019-02-21T01:28:17.730Z,99275.08
2019-02-21T01:30:56.419Z,99273.31
2019-02-21T01:33:16.500Z,99267.52
2019-02-21T01:35:44.832Z,99265.84
2019-02-21T01:38:13.143Z,99266.47
2019-02-21T01:40:41.461Z,99261.81
2019-02-21T01:43:09.761Z,99271.36
2019-02-21T01:45:38.168Z,99265.33
2019-02-21T01:48:06.472Z,99269.21
2019-02-21T01:50:35.159Z,99272.83
2019-02-21T01:53:03.768Z,99267.35
2019-02-21T01:55:32.081Z,99274.33
2019-02-21T01:58:00.711Z,99272.34
2019-02-21T02:00:29.009Z,99270.56
2019-02-21T02:02:57.816Z,99270.04
2019-02-21T02:05:26.128Z,99262.04
2019-02-21T02:07:54.451Z,99268.91
2019-02-21T02:10:22.827Z,99272.86
2019-02-21T02:12:53.580Z,99263.24
2019-02-21T02:15:21.331Z,99264.77
2019-02-21T02:17:49.639Z,99260.95
2019-02-21T02:20:17.940Z,99264.59
2019-02-21T02:22:46.265Z,99267.35
2019-02-21T02:25:14.641Z,99266.52
2019-02-21T02:27:42.968Z,99268.84
2019-02-21T02:30:11.528Z,99273.97
2019-02-21T02:32:39.802Z,99273.98
2019-02-21T02:35:08.622Z,99272.94
2019-02-21T02:37:36.932Z,99286.95
2019-02-21T02:40:06.618Z,99281.36
2019-02-21T02:42:35.276Z,99281.20
2019-02-21T02:45:04.126Z,99286.67
2019-02-21T02:47:32.797Z,99284.80
2019-02-21T02:50:01.133Z,99283.52
2019-02-21T02:52:29.582Z,99276.15
2019-02-21T02:54:58.209Z,99287.63
2019-02-21T02:57:26.509Z,99287.04
2019-02-21T02:59:54.835Z,99286.29
2019-02-21T03:02:23.146Z,99283.19
2019-02-21T03:04:51.525Z,99279.70
2019-02-21T03:07:19.875Z,99284.74
2019-02-21T03:09:48.162Z,99285.57
2019-02-21T03:12:16.471Z,99280.92
2019-02-21T03:14:44.770Z,99288.34
2019-02-21T03:17:13.559Z,99290.22
2019-02-21T03:19:41.910Z,99291.71
2019-02-21T03:22:10.279Z,99286.88
2019-02-21T03:24:38.616Z,99292.91
2019-02-21T03:27:07.163Z,99292.30
2019-02-21T03:29:35.513Z,99296.62
2019-02-21T03:32:03.820Z,99295.42
2019-02-21T03:34:32.139Z,99294.73
2019-02-21T03:37:00.442Z,99297.64
2019-02-21T03:39:28.748Z,99293.76
2019-02-21T03:41:57.354Z,99293.84
2019-02-21T03:44:25.662Z,99295.70
2019-02-21T03:46:54.060Z,99304.04
2019-02-21T03:49:22.365Z,99302.95
2019-02-21T03:51:50.761Z,99305.09
2019-02-21T03:54:19.367Z,99301.00
2019-02-21T03:56:47.776Z,99304.04
2019-02-21T03:59:16.435Z,99304.92
2019-02-21T04:01:44.728Z,99308.91
2019-02-21T04:04:13.056Z,99306.36
2019-02-21T04:06:41.366Z,99302.95
2019-02-21T04:09:09.692Z,99302.95
2019-02-21T04:11:37.997Z,99302.91
2019-02-21T04:14:06.626Z,99299.31
2019-02-21T04:16:34.948Z,99298.58
2019-02-21T04:19:03.248Z,99299.45
2019-02-21T04:21:31.606Z,99304.60
2019-02-21T04:23:59.913Z,99303.95
2019-02-21T04:26:28.217Z,99297.05
2019-02-21T04:28:56.545Z,99303.00
2019-02-21T04:31:24.846Z,99302.31
2019-02-21T04:33:53.177Z,99299.63
2019-02-21T04:36:23.435Z,99302.64
2019-02-21T04:38:51.506Z,99301.58
2019-02-21T04:41:19.835Z,99304.39
2019-02-21T04:43:48.431Z,99301.66
2019-02-21T04:46:16.777Z,99302.52
2019-02-21T04:48:45.401Z,99298.82
2019-02-21T04:51:13.709Z,99302.22
2019-02-21T04:53:42.034Z,99303.53
2019-02-21T04:56:10.337Z,99299.20
2019-02-21T04:58:38.663Z,99295.73
2019-02-21T05:01:07.033Z,99292.61
2019-02-21T05:03:35.850Z,99300.78
2019-02-21T05:06:04.159Z,99295.73
2019-02-21T05:08:32.466Z,99295.73
2019-02-21T05:11:00.796Z,99304.41
2019-02-21T05:13:29.098Z,99308.88
2019-02-21T05:15:57.417Z,99308.30
2019-02-21T05:18:25.724Z,99308.30
2019-02-21T05:20:54.070Z,99309.30
2019-02-21T05:23:22.495Z,99298.67
2019-02-21T05:25:50.790Z,99305.91
2019-02-21T05:28:20.748Z,99306.98
2019-02-21T05:30:50.710Z,99297.30
2019-02-21T05:36:20.671Z,99310.39
2019-02-21T05:39:02.899Z,99307.19
2019-02-21T05:41:44.885Z,99311.88
2019-02-21T05:44:29.870Z,99317.72
2019-02-21T05:46:59.811Z,99318.29
2019-02-21T05:49:35.561Z,99327.34
2019-02-21T05:52:20.173Z,99323.80
2019-02-21T05:54:58.898Z,99312.88
2019-02-21T05:57:34.620Z,99319.41
2019-02-21T06:00:07.807Z,99326.89
2019-02-21T06:02:37.752Z,99323.99
2019-02-21T06:05:19.252Z,99326.39
2019-02-21T06:07:51.414Z,99325.53
2019-02-21T06:10:21.374Z,99318.20
2019-02-21T06:12:54.094Z,99323.31
2019-02-21T06:15:26.658Z,99333.47
2019-02-21T06:18:05.547Z,99337.66
2019-02-21T06:20:38.526Z,99335.38
2019-02-21T06:23:08.496Z,99338.27
2019-02-21T06:25:50.570Z,99337.20
2019-02-21T06:28:13.206Z,99339.01
2019-02-21T06:30:43.560Z,99347.92
2019-02-21T06:33:11.860Z,99349.67
2019-02-21T06:35:40.176Z,99350.62
2019-02-21T06:38:08.485Z,99344.48
2019-02-21T06:40:36.801Z,99351.80
2019-02-21T06:43:05.265Z,99361.60
2019-02-21T06:45:33.586Z,99357.02
2019-02-21T06:48:01.895Z,99357.99
2019-02-21T06:50:30.197Z,99362.20
2019-02-21T06:52:58.535Z,99366.52
2019-02-21T06:55:26.856Z,99364.81
2019-02-21T06:57:55.198Z,99368.42
2019-02-21T07:00:23.569Z,99372.79
2019-02-21T07:02:54.218Z,99376.97
2019-02-21T07:05:21.923Z,99381.98
2019-02-21T07:07:50.220Z,99381.17
2019-02-21T07:10:18.630Z,99385.53
2019-02-21T07:12:46.932Z,99387.60
2019-02-21T07:15:15.295Z,99382.08
2019-02-21T07:17:49.234Z,99387.22
2019-02-21T07:20:13.600Z,99388.91
2019-02-21T07:22:42.097Z,99392.55
2019-02-21T07:25:12.108Z,99387.91
2019-02-21T07:27:40.425Z,99391.87
2019-02-21T07:30:19.522Z,99388.83
2019-02-21T07:32:40.496Z,99376.20
2019-02-21T07:35:08.799Z,99378.94
2019-02-21T07:37:37.139Z,99382.04
2019-02-21T07:40:07.465Z,99382.77
2019-02-21T07:42:35.766Z,99390.00
2019-02-21T07:45:04.604Z,99395.26
2019-02-21T07:47:32.906Z,99394.70
2019-02-21T07:50:01.239Z,99397.20
2019-02-21T07:52:29.892Z,99403.27
2019-02-21T07:55:01.806Z,99399.95
2019-02-21T07:57:28.271Z,99393.31
2019-02-21T07:59:56.585Z,99397.00
2019-02-21T08:02:24.906Z,99399.44
2019-02-21T08:04:53.249Z,99397.81
2019-02-21T08:07:21.914Z,99407.04
2019-02-21T08:09:50.216Z,99400.70
2019-02-21T08:12:18.525Z,99413.91
2019-02-21T08:14:47.802Z,99406.47
2019-02-21T08:17:16.479Z,99416.36
2019-02-21T08:19:45.153Z,99408.38
2019-02-21T08:22:13.457Z,99410.30
2019-02-21T08:24:41.767Z,99413.47
2019-02-21T08:27:10.085Z,99408.97
2019-02-21T08:29:38.430Z,99410.70
2019-02-21T08:32:06.764Z,99414.31
2019-02-21T08:34:36.705Z,99413.77
2019-02-21T08:37:05.097Z,99412.89
2019-02-21T08:39:33.409Z,99411.03
2019-02-21T08:42:01.814Z,99410.27
2019-02-21T08:44:30.407Z,99419.36
2019-02-21T08:46:58.747Z,99411.58
2019-02-21T08:49:27.583Z,99409.13
2019-02-21T08:51:55.889Z,99404.98
2019-02-21T08:54:24.206Z,99407.39
2019-02-21T08:56:53.067Z,99402.62
2019-02-21T08:59:21.465Z,99401.45
2019-02-21T09:01:49.833Z,99402.45
2019-02-21T09:04:26.921Z,99405.82
2019-02-21T09:06:48.289Z,99399.73
2019-02-21T09:09:16.902Z,99407.55
2019-02-21T09:11:45.286Z,99411.59
2019-02-21T09:14:14.061Z,99409.55
2019-02-21T09:16:42.668Z,99408.66
2019-02-21T09:19:11.345Z,99414.59
2019-02-21T09:21:40.085Z,99417.11
2019-02-21T09:24:08.817Z,99414.97
2019-02-21T09:26:37.130Z,99408.77
2019-02-21T09:29:05.429Z,99406.97
2019-02-21T09:31:33.825Z,99419.47
2019-02-21T09:34:02.219Z,99415.14
2019-02-21T09:36:30.567Z,99413.23
2019-02-21T09:38:59.146Z,99414.43
2019-02-21T09:41:28.674Z,99407.45
2019-02-21T09:43:57.528Z,99412.45
2019-02-21T09:46:25.902Z,99407.95
2019-02-21T09:48:54.253Z,99405.57
2019-02-21T09:51:22.637Z,99410.14
2019-02-21T09:53:50.952Z,99407.81
2019-02-21T09:56:29.537Z,99418.03
2019-02-21T09:58:49.328Z,99414.49
2019-02-21T10:01:17.669Z,99419.40
2019-02-21T10:03:46.301Z,99414.58
2019-02-21T10:06:14.631Z,99409.30
2019-02-21T10:08:42.958Z,99417.29
2019-02-21T10:11:11.608Z,99416.98
2019-02-21T10:13:40.142Z,99414.33
2019-02-21T10:16:08.824Z,99417.10
2019-02-21T10:18:37.519Z,99412.12
2019-02-21T10:21:05.927Z,99413.13
2019-02-21T10:23:34.239Z,99414.92
2019-02-21T10:26:02.534Z,99409.98
2019-02-21T10:28:32.560Z,99405.48
2019-02-21T10:31:01.355Z,99407.50
2019-02-21T10:33:29.686Z,99401.71
2019-02-21T10:36:00.465Z,99394.44
2019-02-21T10:38:28.282Z,99393.06
2019-02-21T10:40:56.633Z,99393.13
2019-02-21T10:43:24.943Z,99394.22
2019-02-21T10:45:53.283Z,99395.50
2019-02-21T10:48:21.579Z,99400.91
2019-02-21T10:50:49.906Z,99403.16
2019-02-21T10:53:18.222Z,99394.93
2019-02-21T10:55:48.086Z,99394.88
2019-02-21T10:58:16.619Z,99390.98
2019-02-21T11:00:45.146Z,99386.62
2019-02-21T11:03:13.497Z,99386.96
2019-02-21T11:05:41.803Z,99387.72
2019-02-21T11:08:10.132Z,99392.74
2019-02-21T11:10:38.853Z,99382.67
2019-02-21T11:13:07.154Z,99387.01
2019-02-21T11:15:35.555Z,99372.39
2019-02-21T11:18:03.993Z,99374.85
2019-02-21T11:20:32.380Z,99370.83
2019-02-21T11:23:03.198Z,99374.70
2019-02-21T11:25:31.503Z,99369.12
2019-02-21T11:27:59.822Z,99370.00
2019-02-21T11:30:28.190Z,99363.29
2019-02-21T11:32:56.501Z,99365.58
2019-02-21T11:35:24.888Z,99354.72
2019-02-21T11:37:53.189Z,99346.69
2019-02-21T11:40:21.586Z,99345.19
2019-02-21T11:42:49.883Z,99364.84
2019-02-21T11:45:21.106Z,99337.06
2019-02-21T11:47:49.428Z,99334.45
2019-02-21T11:50:19.210Z,99339.34
2019-02-21T11:52:47.598Z,99337.42
2019-02-21T11:55:23.955Z,99334.65
2019-02-21T11:57:52.327Z,99335.59
2019-02-21T12:00:28.957Z,99324.27
2019-02-21T12:02:57.304Z,99338.77
2019-02-21T12:05:31.502Z,99336.48
2019-02-21T12:07:55.808Z,99328.67
2019-02-21T12:10:24.203Z,99327.67
2019-02-21T12:12:52.510Z,99318.52
2019-02-21T12:15:20.833Z,99315.80
2019-02-21T12:17:49.143Z,99316.22
2019-02-21T12:20:18.800Z,99308.23
2019-02-21T12:22:47.542Z,99311.21
2019-02-21T12:25:21.064Z,99302.98
2019-02-21T12:27:49.397Z,99311.44
2019-02-21T12:30:19.365Z,99302.51
2019-02-21T12:32:48.114Z,99298.98
2019-02-21T12:35:16.801Z,99297.36
2019-02-21T12:37:45.496Z,99303.88
2019-02-21T12:40:21.840Z,99297.13
2019-02-21T12:42:50.152Z,99309.75
2019-02-21T12:45:20.781Z,99303.52
2019-02-21T12:47:53.339Z,99309.38
2019-02-21T12:50:19.185Z,99303.83
2019-02-21T12:52:47.502Z,99305.69
2019-02-21T12:55:27.081Z,99305.52
2019-02-21T12:57:45.926Z,99302.22
2019-02-21T13:00:16.939Z,99299.34
2019-02-21T13:02:45.240Z,99289.20
2019-02-21T13:05:13.630Z,99286.55
2019-02-21T13:07:41.935Z,99295.31
2019-02-21T13:10:12.975Z,99288.80
2019-02-21T13:12:41.357Z,99291.63
2019-02-21T13:15:12.380Z,99296.44
2019-02-21T13:17:40.706Z,99283.91
2019-02-21T13:20:11.628Z,99287.20
2019-02-21T13:22:39.979Z,99288.81
2019-02-21T13:25:11.388Z,99289.84
2019-02-21T13:27:39.697Z,99287.27
2019-02-21T13:30:10.765Z,99287.17
2019-02-21T13:32:39.136Z,99279.02
2019-02-21T13:35:09.011Z,99279.03
2019-02-21T13:37:37.377Z,99283.28
2019-02-21T13:40:15.571Z,99278.55
2019-02-21T13:42:43.892Z,99289.63
2019-02-21T13:45:17.210Z,99281.35
2019-02-21T13:47:44.812Z,99287.63
2019-02-21T13:50:15.847Z,99277.01
2019-02-21T13:52:44.146Z,99289.38
2019-02-21T13:55:12.541Z,99303.62
2019-02-21T13:57:40.923Z,99291.45
2019-02-21T14:00:12.398Z,99296.66
2019-02-21T14:02:40.727Z,99281.06
2019-02-21T14:05:09.182Z,99284.11
2019-02-21T14:07:37.537Z,99289.66
2019-02-21T14:10:08.455Z,99289.80
2019-02-21T14:12:36.832Z,99281.19
2019-02-21T14:15:08.555Z,99291.05
2019-02-21T14:17:36.865Z,99287.84
2019-02-21T14:20:07.524Z,99300.00
2019-02-21T14:22:35.839Z,99301.67
2019-02-21T14:25:06.392Z,99301.29
2019-02-21T14:27:35.026Z,99300.41
2019-02-21T14:30:04.669Z,99299.33
2019-02-21T14:32:32.980Z,99283.67
2019-02-21T14:35:01.319Z,99298.25
2019-02-21T14:37:29.624Z,99290.47
2019-02-21T14:39:57.978Z,99291.87
2019-02-21T14:42:26.283Z,99287.50
2019-02-21T14:44:54.581Z,99296.70
2019-02-21T14:47:22.908Z,99290.95
2019-02-21T14:49:51.222Z,99284.17
2019-02-21T14:52:19.848Z,99282.98
2019-02-21T14:54:48.555Z,99287.56
2019-02-21T14:57:16.851Z,99287.82
2019-02-21T14:59:45.176Z,99289.47
2019-02-21T15:02:13.472Z,99282.07
2019-02-21T15:04:41.811Z,99272.75
2019-02-21T15:07:10.203Z,99274.14
2019-02-21T15:09:38.511Z,99271.11
2019-02-21T15:12:07.228Z,99268.48
2019-02-21T15:14:35.521Z,99266.11
2019-02-21T15:17:04.108Z,99268.59
2019-02-21T15:19:32.446Z,99263.22
2019-02-21T15:22:00.790Z,99267.17
2019-02-21T15:24:29.114Z,99270.46
2019-02-21T15:27:07.915Z,99258.33
2019-02-21T15:29:27.742Z,99258.62
2019-02-21T15:31:56.049Z,99255.13
2019-02-21T15:34:24.387Z,99248.02
2019-02-21T15:36:52.696Z,99239.81
2019-02-21T15:39:21.007Z,99233.88
2019-02-21T15:41:49.334Z,99234.28
2019-02-21T15:44:17.643Z,99232.97
2019-02-21T15:46:46.296Z,99232.31
2019-02-21T15:49:14.596Z,99230.97
2019-02-21T15:51:42.906Z,99227.05
2019-02-21T15:54:12.551Z,99233.70
2019-02-21T15:56:41.915Z,99232.97
2019-02-21T15:59:10.260Z,99232.16
2019-02-21T16:01:46.915Z,99239.38
2019-02-21T16:04:08.678Z,99242.58
2019-02-21T16:06:38.054Z,99240.41
2019-02-21T16:09:15.851Z,99236.63
2019-02-21T16:11:38.036Z,99239.48
2019-02-21T16:14:06.354Z,99239.84
2019-02-21T16:16:34.731Z,99239.91
2019-02-21T16:19:03.349Z,99234.23
2019-02-21T16:21:32.034Z,99238.27
2019-02-21T16:24:00.371Z,99230.81
2019-02-21T16:26:28.681Z,99239.13
2019-02-21T16:28:56.981Z,99236.23
2019-02-21T16:31:25.306Z,99240.45
2019-02-21T16:33:53.945Z,99232.09
2019-02-21T16:36:22.290Z,99241.16
2019-02-21T16:38:50.680Z,99235.77
2019-02-21T16:41:18.987Z,99235.67
2019-02-21T16:43:47.324Z,99235.11
2019-02-21T16:46:15.635Z,99227.78
2019-02-21T16:48:43.963Z,99228.17
2019-02-21T16:51:13.159Z,99233.17
2019-02-21T16:53:41.511Z,99235.50
2019-02-21T16:56:10.390Z,99233.50
2019-02-21T16:58:38.701Z,99229.98
2019-02-21T17:01:07.367Z,99229.98
2019-02-21T17:03:35.686Z,99238.81
2019-02-21T17:06:04.018Z,99244.58
2019-02-21T17:08:32.398Z,99244.81
2019-02-21T17:11:00.737Z,99242.03
2019-02-21T17:13:29.121Z,99240.02
2019-02-21T17:15:57.423Z,99240.16
2019-02-21T17:18:25.749Z,99240.94
2019-02-21T17:20:54.081Z,99236.83
2019-02-21T17:23:23.174Z,99236.94
2019-02-21T17:25:52.155Z,99240.30
2019-02-21T17:28:20.458Z,99225.56
2019-02-21T17:30:48.782Z,99237.83
2019-02-21T17:33:17.460Z,99244.23
2019-02-21T17:35:45.812Z,99245.47
2019-02-21T17:38:14.562Z,99247.92
2019-02-21T17:40:43.109Z,99239.77
2019-02-21T17:43:11.434Z,99237.39
2019-02-21T17:45:39.748Z,99238.85
2019-02-21T17:48:08.081Z,99241.89
2019-02-21T17:50:36.454Z,99244.67
2019-02-21T17:53:05.228Z,99235.70
2019-02-21T17:55:33.624Z,99239.94
2019-02-21T17:58:02.020Z,99235.55
2019-02-21T18:00:34.938Z,99232.06
2019-02-21T18:03:04.685Z,99231.76
2019-02-21T18:05:33.207Z,99234.02
2019-02-21T18:08:01.572Z,99232.00
2019-02-21T18:10:29.885Z,99229.53
2019-02-21T18:12:58.294Z,99225.04
2019-02-21T18:15:26.606Z,99221.41
2019-02-21T18:17:55.877Z,99218.78
2019-02-21T18:20:24.276Z,99216.80
2019-02-21T18:22:52.585Z,99218.02
2019-02-21T18:25:24.321Z,99225.34
2019-02-21T18:27:55.845Z,99221.50
2019-02-21T18:30:24.241Z,99219.94
2019-02-21T18:32:52.543Z,99219.02
2019-02-21T18:35:20.867Z,99207.91
2019-02-21T18:37:49.242Z,99207.14
2019-02-21T18:40:25.451Z,99208.81
2019-02-21T18:42:53.826Z,99201.24
2019-02-21T18:45:22.312Z,99196.55
2019-02-21T18:47:50.639Z,99195.32
2019-02-21T18:50:19.017Z,99195.31
2019-02-21T18:52:47.359Z,99203.41
2019-02-21T18:55:16.070Z,99204.31
2019-02-21T18:57:44.380Z,99209.39
2019-02-21T19:00:24.101Z,99204.75
2019-02-21T19:02:52.536Z,99202.52
2019-02-21T19:05:21.714Z,99199.40
2019-02-21T19:07:58.503Z,99198.38
2019-02-21T19:10:21.325Z,99204.02
2019-02-21T19:12:49.730Z,99200.77
2019-02-21T19:15:20.251Z,99203.09
2019-02-21T19:17:48.666Z,99205.41
2019-02-21T19:20:21.567Z,99196.22
2019-02-21T19:22:49.944Z,99208.20
2019-02-21T19:25:21.476Z,99204.81
2019-02-21T19:27:49.811Z,99207.20
2019-02-21T19:30:21.782Z,99216.22
2019-02-21T19:32:50.155Z,99206.28
2019-02-21T19:35:18.542Z,99213.37
2019-02-21T19:37:47.003Z,99210.92
2019-02-21T19:40:34.754Z,99229.45
2019-02-21T19:43:03.186Z,99225.98
2019-02-21T19:45:31.562Z,99235.16
2019-02-21T19:47:59.871Z,99239.72
2019-02-21T19:50:28.218Z,99242.34
2019-02-21T19:52:56.596Z,99239.72
2019-02-21T19:55:25.155Z,99240.48
2019-02-21T19:57:53.598Z,99236.95
2019-02-21T20:00:25.343Z,99247.44
2019-02-21T20:02:54.567Z,99243.12
2019-02-21T20:05:23.398Z,99241.25
2019-02-21T20:07:51.726Z,99236.86
2019-02-21T20:10:20.107Z,99231.84
2019-02-21T20:12:48.597Z,99243.57
2019-02-21T20:15:17.338Z,99235.48
2019-02-21T20:17:45.647Z,99227.45
2019-02-21T20:20:22.734Z,99222.11
2019-02-21T20:22:51.793Z,99227.04
2019-02-21T20:25:20.130Z,99223.96
2019-02-21T20:27:48.443Z,99225.19
2019-02-21T20:30:20.045Z,99225.33
2019-02-21T20:32:48.423Z,99224.31
2019-02-21T20:35:16.870Z,99219.68
2019-02-21T20:37:45.478Z,99220.02
2019-02-21T20:40:13.855Z,99220.99
2019-02-21T20:42:42.240Z,99221.83
2019-02-21T20:45:12.081Z,99216.63
2019-02-21T20:47:40.413Z,99217.23
2019-02-21T20:50:10.645Z,99221.02
2019-02-21T20:52:38.954Z,99221.53
2019-02-21T20:55:08.629Z,99223.44
2019-02-21T20:57:37.077Z,99223.80
2019-02-21T21:00:08.581Z,99232.58
2019-02-21T21:02:37.227Z,99240.94
2019-02-21T21:05:05.598Z,99240.48
2019-02-21T21:07:33.926Z,99247.41
2019-02-21T21:10:02.302Z,99250.06
2019-02-21T21:12:30.745Z,99233.58
2019-02-21T21:14:59.060Z,99237.37
2019-02-21T21:17:27.667Z,99230.41
2019-02-21T21:19:55.985Z,99234.11
2019-02-21T21:22:24.363Z,99240.94
2019-02-21T21:24:52.980Z,99241.72
2019-02-21T21:27:21.298Z,99237.41
2019-02-21T21:29:49.596Z,99233.35
2019-02-21T21:32:18.521Z,99230.77
2019-02-21T21:34:46.834Z,99228.84
2019-02-21T21:37:15.179Z,99242.80
2019-02-21T21:39:43.577Z,99240.31
2019-02-21T21:42:11.886Z,99247.53
2019-02-21T21:44:40.204Z,99246.00
2019-02-21T21:47:08.573Z,99249.71
2019-02-21T21:49:36.925Z,99248.03
2019-02-21T21:52:05.219Z,99251.56
2019-02-21T21:54:33.518Z,99247.53
2019-02-21T21:57:01.835Z,99255.04
2019-02-21T21:59:30.144Z,99249.08
2019-02-21T22:01:58.479Z,99251.64
2019-02-21T22:04:26.850Z,99250.33
2019-02-21T22:06:55.287Z,99246.94
2019-02-21T22:09:24.242Z,99247.17
2019-02-21T22:11:52.538Z,99253.71
2019-02-21T22:14:21.157Z,99258.42
2019-02-21T22:16:49.528Z,99263.75
2019-02-21T22:19:17.866Z,99266.78
2019-02-21T22:21:46.172Z,99268.01
2019-02-21T22:24:14.469Z,99263.70
2019-02-21T22:26:42.868Z,99259.16
2019-02-21T22:29:11.171Z,99257.20
2019-02-21T22:31:39.573Z,99261.77
2019-02-21T22:34:07.950Z,99256.48
2019-02-21T22:36:36.245Z,99260.42
2019-02-21T22:39:15.911Z,99267.69
2019-02-21T22:41:36.905Z,99267.97
2019-02-21T22:44:05.522Z,99261.36
2019-02-21T22:46:33.828Z,99260.28
2019-02-21T22:49:02.494Z,99265.66
2019-02-21T22:51:30.795Z,99264.11
2019-02-21T22:53:59.149Z,99260.86
2019-02-21T22:56:27.876Z,99261.73
2019-02-21T22:58:56.633Z,99255.72
2019-02-21T23:01:27.638Z,99255.48
2019-02-21T23:03:59.141Z,99257.62
2019-02-21T23:06:42.977Z,99263.53
2019-02-21T23:09:26.971Z,99253.78
2019-02-21T23:11:49.002Z,99248.48
2019-02-21T23:14:19.373Z,99247.89
2019-02-21T23:16:47.766Z,99248.70
2019-02-21T23:19:16.157Z,99247.00
2019-02-21T23:21:44.457Z,99244.33
2019-02-21T23:24:12.859Z,99241.53
2019-02-21T23:26:41.546Z,99237.23
2019-02-21T23:29:09.915Z,99241.08
2019-02-21T23:31:38.238Z,99232.77
2019-02-21T23:34:08.262Z,99235.34
2019-02-21T23:36:36.585Z,99227.30
2019-02-21T23:39:05.931Z,99231.36
2019-02-21T23:41:34.702Z,99228.19
2019-02-21T23:44:03.074Z,99229.05
2019-02-21T23:46:31.371Z,99239.39
2019-02-21T23:48:59.690Z,99237.37
2019-02-21T23:51:27.987Z,99234.33
2019-02-21T23:54:03.154Z,99232.79
2019-02-21T23:56:26.360Z,99225.20
2019-02-21T23:58:54.667Z,99221.50
